sensor_id;sensor_type;location;lat;lon;timestamp;pressure;altitude;pressure_sealevel;temperature;humidity
28428;BME280;15662;49.128;8.520;2022-07-29T00:01:18;100117.44;;;27.69;37.62
28428;BME280;15662;49.128;8.520;2022-07-29T00:03:46;100108.72;;;27.65;37.75
28428;BME280;15662;49.128;8.520;2022-07-29T00:06:15;100107.00;;;27.64;37.77
28428;BME280;15662;49.128;8.520;2022-07-29T00:08:43;100106.63;;;27.59;37.76
28428;BME280;15662;49.128;8.520;2022-07-29T00:11:11;100108.06;;;27.53;38.15
28428;BME280;15662;49.128;8.520;2022-07-29T00:13:39;100109.94;;;27.53;38.36
28428;BME280;15662;49.128;8.520;2022-07-29T00:16:07;100118.09;;;27.53;38.10
28428;BME280;15662;49.128;8.520;2022-07-29T00:18:35;100117.25;;;27.52;38.38
28428;BME280;15662;49.128;8.520;2022-07-29T00:21:02;100113.00;;;27.50;38.51
28428;BME280;15662;49.128;8.520;2022-07-29T00:23:30;100113.28;;;27.47;38.66
28428;BME280;15662;49.128;8.520;2022-07-29T00:26:03;100109.16;;;27.43;38.93
28428;BME280;15662;49.128;8.520;2022-07-29T00:28:31;100110.34;;;27.40;39.13
28428;BME280;15662;49.128;8.520;2022-07-29T00:31:00;100098.03;;;27.36;39.00
28428;BME280;15662;49.128;8.520;2022-07-29T00:33:28;100100.78;;;27.36;39.18
28428;BME280;15662;49.128;8.520;2022-07-29T00:35:56;100098.22;;;27.35;39.45
28428;BME280;15662;49.128;8.520;2022-07-29T00:38:24;100104.63;;;27.34;39.41
28428;BME280;15662;49.128;8.520;2022-07-29T00:40:52;100094.06;;;27.31;39.71
28428;BME280;15662;49.128;8.520;2022-07-29T00:43:20;100094.38;;;27.27;39.83
28428;BME280;15662;49.128;8.520;2022-07-29T00:45:48;100085.66;;;27.24;39.95
28428;BME280;15662;49.128;8.520;2022-07-29T00:48:16;100079.53;;;27.22;40.08
28428;BME280;15662;49.128;8.520;2022-07-29T00:50:44;100070.13;;;27.16;40.06
28428;BME280;15662;49.128;8.520;2022-07-29T00:53:12;100069.56;;;27.13;40.28
28428;BME280;15662;49.128;8.520;2022-07-29T00:55:40;100075.31;;;27.10;40.35
28428;BME280;15662;49.128;8.520;2022-07-29T00:58:08;100076.59;;;27.06;40.34
28428;BME280;15662;49.128;8.520;2022-07-29T01:00:39;100076.34;;;26.99;40.50
28428;BME280;15662;49.128;8.520;2022-07-29T01:03:27;100054.63;;;26.89;40.63
28428;BME280;15662;49.128;8.520;2022-07-29T01:05:55;100073.09;;;26.95;40.81
28428;BME280;15662;49.128;8.520;2022-07-29T01:08:23;100081.25;;;26.95;40.90
28428;BME280;15662;49.128;8.520;2022-07-29T01:10:52;100075.06;;;26.93;41.01
28428;BME280;15662;49.128;8.520;2022-07-29T01:13:21;100080.69;;;26.92;41.24
28428;BME280;15662;49.128;8.520;2022-07-29T01:15:56;100078.81;;;26.92;41.29
28428;BME280;15662;49.128;8.520;2022-07-29T01:18:39;100076.38;;;26.89;41.33
28428;BME280;15662;49.128;8.520;2022-07-29T01:21:44;100071.72;;;26.82;41.24
28428;BME280;15662;49.128;8.520;2022-07-29T01:30:15;100076.03;;;26.74;41.51
28428;BME280;15662;49.128;8.520;2022-07-29T01:32:47;100076.75;;;26.77;41.60
28428;BME280;15662;49.128;8.520;2022-07-29T01:35:41;100082.19;;;26.77;41.80
28428;BME280;15662;49.128;8.520;2022-07-29T01:38:16;100083.34;;;26.74;41.87
28428;BME280;15662;49.128;8.520;2022-07-29T01:40:51;100071.47;;;26.75;41.93
28428;BME280;15662;49.128;8.520;2022-07-29T01:43:38;100076.91;;;26.75;41.98
28428;BME280;15662;49.128;8.520;2022-07-29T01:46:15;100071.94;;;26.70;42.28
28428;BME280;15662;49.128;8.520;2022-07-29T01:48:53;100070.34;;;26.68;42.38
28428;BME280;15662;49.128;8.520;2022-07-29T01:51:33;100065.06;;;26.66;42.39
28428;BME280;15662;49.128;8.520;2022-07-29T01:54:31;100070.81;;;26.63;42.34
28428;BME280;15662;49.128;8.520;2022-07-29T01:57:00;100058.38;;;26.61;42.46
28428;BME280;15662;49.128;8.520;2022-07-29T01:59:29;100065.38;;;26.63;42.88
28428;BME280;15662;49.128;8.520;2022-07-29T02:01:59;100061.78;;;26.63;42.70
28428;BME280;15662;49.128;8.520;2022-07-29T02:04:29;100066.94;;;26.66;42.66
28428;BME280;15662;49.128;8.520;2022-07-29T02:07:03;100066.94;;;26.66;42.76
28428;BME280;15662;49.128;8.520;2022-07-29T02:09:35;100067.91;;;26.65;42.76
28428;BME280;15662;49.128;8.520;2022-07-29T02:12:04;100067.06;;;26.64;42.93
28428;BME280;15662;49.128;8.520;2022-07-29T02:14:40;100074.25;;;26.65;42.99
28428;BME280;15662;49.128;8.520;2022-07-29T02:17:12;100072.66;;;26.63;43.10
28428;BME280;15662;49.128;8.520;2022-07-29T02:19:43;100071.97;;;26.61;43.10
28428;BME280;15662;49.128;8.520;2022-07-29T02:22:12;100071.72;;;26.35;42.89
28428;BME280;15662;49.128;8.520;2022-07-29T02:24:41;100077.91;;;26.46;43.21
28428;BME280;15662;49.128;8.520;2022-07-29T02:27:09;100071.16;;;26.51;43.30
28428;BME280;15662;49.128;8.520;2022-07-29T02:29:39;100069.59;;;26.48;43.16
28428;BME280;15662;49.128;8.520;2022-07-29T02:32:10;100070.16;;;26.42;43.29
28428;BME280;15662;49.128;8.520;2022-07-29T02:34:38;100076.47;;;26.33;43.63
28428;BME280;15662;49.128;8.520;2022-07-29T02:37:10;100083.03;;;26.30;43.82
28428;BME280;15662;49.128;8.520;2022-07-29T02:39:41;100076.34;;;26.24;43.79
28428;BME280;15662;49.128;8.520;2022-07-29T02:42:15;100083.22;;;26.19;43.73
28428;BME280;15662;49.128;8.520;2022-07-29T02:44:44;100081.25;;;26.11;43.99
28428;BME280;15662;49.128;8.520;2022-07-29T02:50:32;100080.13;;;25.94;43.96
28428;BME280;15662;49.128;8.520;2022-07-29T02:53:18;100078.69;;;25.90;44.25
28428;BME280;15662;49.128;8.520;2022-07-29T02:56:00;100082.84;;;25.85;44.21
28428;BME280;15662;49.128;8.520;2022-07-29T02:58:32;100074.28;;;25.80;44.71
28428;BME280;15662;49.128;8.520;2022-07-29T03:01:12;100074.44;;;25.78;44.67
28428;BME280;15662;49.128;8.520;2022-07-29T03:03:51;100085.84;;;25.72;44.92
28428;BME280;15662;49.128;8.520;2022-07-29T03:06:23;100083.56;;;25.67;45.07
28428;BME280;15662;49.128;8.520;2022-07-29T03:09:07;100079.56;;;25.62;45.05
28428;BME280;15662;49.128;8.520;2022-07-29T03:11:41;100071.00;;;25.57;45.25
28428;BME280;15662;49.128;8.520;2022-07-29T03:14:18;100078.13;;;25.58;45.56
28428;BME280;15662;49.128;8.520;2022-07-29T03:16:48;100082.13;;;25.54;45.88
28428;BME280;15662;49.128;8.520;2022-07-29T03:19:18;100083.84;;;25.55;45.55
28428;BME280;15662;49.128;8.520;2022-07-29T03:21:47;100078.13;;;25.48;45.72
28428;BME280;15662;49.128;8.520;2022-07-29T03:24:35;100081.97;;;25.45;45.59
28428;BME280;15662;49.128;8.520;2022-07-29T03:27:04;100083.66;;;25.37;45.97
28428;BME280;15662;49.128;8.520;2022-07-29T03:29:32;100077.09;;;25.30;45.86
28428;BME280;15662;49.128;8.520;2022-07-29T03:32:05;100078.38;;;25.26;46.12
28428;BME280;15662;49.128;8.520;2022-07-29T03:34:36;100084.09;;;25.23;46.04
28428;BME280;15662;49.128;8.520;2022-07-29T03:37:05;100078.50;;;25.14;46.10
28428;BME280;15662;49.128;8.520;2022-07-29T03:39:39;100081.22;;;25.14;46.15
28428;BME280;15662;49.128;8.520;2022-07-29T03:42:12;100085.22;;;25.10;46.21
28428;BME280;15662;49.128;8.520;2022-07-29T03:44:43;100093.72;;;25.06;46.31
28428;BME280;15662;49.128;8.520;2022-07-29T03:47:13;100090.88;;;24.98;46.13
28428;BME280;15662;49.128;8.520;2022-07-29T03:49:44;100080.00;;;24.88;46.27
28428;BME280;15662;49.128;8.520;2022-07-29T03:52:15;100093.66;;;24.86;46.44
28428;BME280;15662;49.128;8.520;2022-07-29T03:54:43;100093.97;;;24.83;46.68
28428;BME280;15662;49.128;8.520;2022-07-29T03:57:11;100094.81;;;24.84;46.77
28428;BME280;15662;49.128;8.520;2022-07-29T03:59:40;100091.06;;;24.75;46.71
28428;BME280;15662;49.128;8.520;2022-07-29T04:02:11;100093.78;;;24.75;46.87
28428;BME280;15662;49.128;8.520;2022-07-29T04:04:39;100099.59;;;24.70;46.95
28428;BME280;15662;49.128;8.520;2022-07-29T04:07:06;100102.47;;;24.69;47.15
28428;BME280;15662;49.128;8.520;2022-07-29T04:09:38;100087.88;;;24.60;47.11
28428;BME280;15662;49.128;8.520;2022-07-29T04:12:07;100105.44;;;24.66;47.25
28428;BME280;15662;49.128;8.520;2022-07-29T04:14:35;100098.44;;;24.63;47.11
28428;BME280;15662;49.128;8.520;2022-07-29T04:17:04;100097.56;;;24.63;47.31
28428;BME280;15662;49.128;8.520;2022-07-29T04:19:32;100101.16;;;24.63;47.19
28428;BME280;15662;49.128;8.520;2022-07-29T04:22:01;100091.44;;;24.61;47.62
28428;BME280;15662;49.128;8.520;2022-07-29T04:24:29;100104.59;;;24.65;47.55
28428;BME280;15662;49.128;8.520;2022-07-29T04:26:57;100102.59;;;24.67;47.82
28428;BME280;15662;49.128;8.520;2022-07-29T04:29:24;100106.63;;;24.73;47.66
28428;BME280;15662;49.128;8.520;2022-07-29T04:31:52;100110.03;;;24.75;47.57
28428;BME280;15662;49.128;8.520;2022-07-29T04:34:20;100096.63;;;24.74;47.84
28428;BME280;15662;49.128;8.520;2022-07-29T04:36:48;100099.19;;;24.75;47.90
28428;BME280;15662;49.128;8.520;2022-07-29T04:39:16;100108.91;;;24.78;48.11
28428;BME280;15662;49.128;8.520;2022-07-29T04:41:50;100111.34;;;24.81;48.11
28428;BME280;15662;49.128;8.520;2022-07-29T04:44:21;100116.06;;;24.79;48.05
28428;BME280;15662;49.128;8.520;2022-07-29T04:46:56;100113.34;;;24.79;47.84
28428;BME280;15662;49.128;8.520;2022-07-29T04:49:25;100111.03;;;24.74;48.01
28428;BME280;15662;49.128;8.520;2022-07-29T04:51:53;100118.03;;;24.77;48.20
28428;BME280;15662;49.128;8.520;2022-07-29T04:54:21;100121.44;;;24.69;47.98
28428;BME280;15662;49.128;8.520;2022-07-29T04:56:51;100129.28;;;24.72;47.95
28428;BME280;15662;49.128;8.520;2022-07-29T04:59:19;100122.88;;;24.73;48.11
28428;BME280;15662;49.128;8.520;2022-07-29T05:01:47;100126.56;;;24.72;48.34
28428;BME280;15662;49.128;8.520;2022-07-29T05:04:15;100132.84;;;24.73;48.24
28428;BME280;15662;49.128;8.520;2022-07-29T05:06:43;100129.00;;;24.75;48.34
28428;BME280;15662;49.128;8.520;2022-07-29T05:09:11;100126.31;;;24.75;48.78
28428;BME280;15662;49.128;8.520;2022-07-29T05:11:39;100127.16;;;24.76;48.55
28428;BME280;15662;49.128;8.520;2022-07-29T05:14:08;100136.47;;;24.83;48.69
28428;BME280;15662;49.128;8.520;2022-07-29T05:16:36;100136.94;;;24.88;48.99
28428;BME280;15662;49.128;8.520;2022-07-29T05:19:04;100138.63;;;24.89;48.88
28428;BME280;15662;49.128;8.520;2022-07-29T05:21:35;100139.50;;;24.89;48.80
28428;BME280;15662;49.128;8.520;2022-07-29T05:24:03;100132.81;;;24.93;49.18
28428;BME280;15662;49.128;8.520;2022-07-29T05:26:31;100128.09;;;24.95;48.84
28428;BME280;15662;49.128;8.520;2022-07-29T05:28:59;100129.69;;;24.98;48.81
28428;BME280;15662;49.128;8.520;2022-07-29T05:31:26;100143.00;;;25.11;48.92
28428;BME280;15662;49.128;8.520;2022-07-29T05:33:54;100147.88;;;25.17;48.58
28428;BME280;15662;49.128;8.520;2022-07-29T05:36:22;100138.47;;;25.21;48.25
28428;BME280;15662;49.128;8.520;2022-07-29T05:38:50;100144.75;;;25.21;48.20
28428;BME280;15662;49.128;8.520;2022-07-29T05:41:19;100146.78;;;25.29;48.22
28428;BME280;15662;49.128;8.520;2022-07-29T05:43:47;100149.34;;;25.31;48.15
28428;BME280;15662;49.128;8.520;2022-07-29T05:46:15;100157.66;;;25.39;48.16
28428;BME280;15662;49.128;8.520;2022-07-29T05:48:43;100154.38;;;25.45;47.92
28428;BME280;15662;49.128;8.520;2022-07-29T05:51:11;100158.97;;;25.54;48.24
28428;BME280;15662;49.128;8.520;2022-07-29T05:53:39;100162.09;;;25.59;48.21
28428;BME280;15662;49.128;8.520;2022-07-29T05:56:07;100155.69;;;25.70;47.91
28428;BME280;15662;49.128;8.520;2022-07-29T05:58:35;100157.97;;;25.74;48.07
28428;BME280;15662;49.128;8.520;2022-07-29T06:01:04;100157.75;;;25.78;47.78
28428;BME280;15662;49.128;8.520;2022-07-29T06:03:32;100166.44;;;25.81;47.99
28428;BME280;15662;49.128;8.520;2022-07-29T06:06:00;100181.19;;;25.88;47.82
28428;BME280;15662;49.128;8.520;2022-07-29T06:08:28;100165.31;;;25.93;47.83
28428;BME280;15662;49.128;8.520;2022-07-29T06:10:56;100174.03;;;26.07;47.83
28428;BME280;15662;49.128;8.520;2022-07-29T06:13:24;100185.75;;;26.17;47.51
28428;BME280;15662;49.128;8.520;2022-07-29T06:15:51;100177.28;;;26.30;47.45
28428;BME280;15662;49.128;8.520;2022-07-29T06:18:19;100172.69;;;26.40;47.40
28428;BME280;15662;49.128;8.520;2022-07-29T06:20:48;100182.28;;;26.54;47.01
28428;BME280;15662;49.128;8.520;2022-07-29T06:23:17;100177.38;;;26.67;46.91
28428;BME280;15662;49.128;8.520;2022-07-29T06:25:45;100180.50;;;26.82;46.91
28428;BME280;15662;49.128;8.520;2022-07-29T06:28:13;100190.28;;;27.02;46.63
28428;BME280;15662;49.128;8.520;2022-07-29T06:30:41;100182.06;;;27.21;46.23
28428;BME280;15662;49.128;8.520;2022-07-29T06:33:09;100186.56;;;27.40;45.92
28428;BME280;15662;49.128;8.520;2022-07-29T06:35:37;100190.63;;;27.54;45.69
28428;BME280;15662;49.128;8.520;2022-07-29T06:38:09;100187.69;;;27.65;45.36
28428;BME280;15662;49.128;8.520;2022-07-29T06:40:58;100191.22;;;27.75;44.84
28428;BME280;15662;49.128;8.520;2022-07-29T06:43:36;100197.66;;;27.92;44.71
28428;BME280;15662;49.128;8.520;2022-07-29T06:46:22;100184.13;;;28.00;44.53
28428;BME280;15662;49.128;8.520;2022-07-29T06:48:51;100186.47;;;28.13;44.12
28428;BME280;15662;49.128;8.520;2022-07-29T06:51:20;100203.59;;;28.23;44.02
28428;BME280;15662;49.128;8.520;2022-07-29T06:53:53;100185.75;;;28.29;43.64
28428;BME280;15662;49.128;8.520;2022-07-29T06:56:31;100184.91;;;28.28;43.45
28428;BME280;15662;49.128;8.520;2022-07-29T06:59:08;100197.06;;;28.34;43.17
28428;BME280;15662;49.128;8.520;2022-07-29T07:01:42;100199.31;;;28.39;43.01
28428;BME280;15662;49.128;8.520;2022-07-29T07:04:11;100195.94;;;28.45;43.04
28428;BME280;15662;49.128;8.520;2022-07-29T07:06:40;100188.69;;;28.53;42.72
28428;BME280;15662;49.128;8.520;2022-07-29T07:09:08;100201.38;;;28.63;42.80
28428;BME280;15662;49.128;8.520;2022-07-29T07:11:36;100212.69;;;28.76;42.35
28428;BME280;15662;49.128;8.520;2022-07-29T07:14:03;100199.41;;;28.81;42.13
28428;BME280;15662;49.128;8.520;2022-07-29T07:16:32;100199.28;;;28.83;41.79
28428;BME280;15662;49.128;8.520;2022-07-29T07:19:00;100203.91;;;28.90;41.66
28428;BME280;15662;49.128;8.520;2022-07-29T07:21:29;100205.03;;;28.97;41.51
28428;BME280;15662;49.128;8.520;2022-07-29T07:23:58;100214.97;;;29.07;41.61
28428;BME280;15662;49.128;8.520;2022-07-29T07:26:27;100210.88;;;29.11;41.25
28428;BME280;15662;49.128;8.520;2022-07-29T07:28:55;100205.75;;;29.08;41.07
28428;BME280;15662;49.128;8.520;2022-07-29T07:31:23;100202.69;;;29.11;41.33
28428;BME280;15662;49.128;8.520;2022-07-29T07:33:52;100207.16;;;29.20;40.81
28428;BME280;15662;49.128;8.520;2022-07-29T07:36:22;100209.09;;;29.36;40.70
28428;BME280;15662;49.128;8.520;2022-07-29T07:38:50;100209.19;;;29.52;40.57
28428;BME280;15662;49.128;8.520;2022-07-29T07:41:17;100206.34;;;29.70;40.33
28428;BME280;15662;49.128;8.520;2022-07-29T07:43:46;100215.78;;;29.84;40.33
28428;BME280;15662;49.128;8.520;2022-07-29T07:46:15;100210.88;;;29.95;40.31
28428;BME280;15662;49.128;8.520;2022-07-29T07:48:44;100217.16;;;30.04;39.79
28428;BME280;15662;49.128;8.520;2022-07-29T07:51:12;100217.38;;;30.11;39.64
28428;BME280;15662;49.128;8.520;2022-07-29T07:53:40;100209.50;;;30.07;39.38
28428;BME280;15662;49.128;8.520;2022-07-29T07:56:08;100210.34;;;30.08;39.61
28428;BME280;15662;49.128;8.520;2022-07-29T07:58:39;100218.72;;;30.06;39.39
28428;BME280;15662;49.128;8.520;2022-07-29T08:01:08;100220.75;;;30.04;39.50
28428;BME280;15662;49.128;8.520;2022-07-29T08:03:36;100206.94;;;30.06;39.56
28428;BME280;15662;49.128;8.520;2022-07-29T08:06:05;100212.91;;;30.10;39.52
28428;BME280;15662;49.128;8.520;2022-07-29T08:08:33;100204.22;;;30.14;39.49
28428;BME280;15662;49.128;8.520;2022-07-29T08:11:01;100213.47;;;30.21;39.28
28428;BME280;15662;49.128;8.520;2022-07-29T08:13:37;100212.44;;;30.30;39.35
28428;BME280;15662;49.128;8.520;2022-07-29T08:16:07;100213.28;;;30.39;38.83
28428;BME280;15662;49.128;8.520;2022-07-29T08:18:45;100215.00;;;30.48;38.62
28428;BME280;15662;49.128;8.520;2022-07-29T08:21:16;100214.28;;;30.63;38.63
28428;BME280;15662;49.128;8.520;2022-07-29T08:23:45;100221.50;;;30.72;38.61
28428;BME280;15662;49.128;8.520;2022-07-29T08:26:25;100223.53;;;30.78;38.41
28428;BME280;15662;49.128;8.520;2022-07-29T08:28:52;100221.97;;;30.83;37.96
28428;BME280;15662;49.128;8.520;2022-07-29T08:31:22;100222.31;;;30.89;37.67
28428;BME280;15662;49.128;8.520;2022-07-29T08:33:50;100217.88;;;30.88;37.88
28428;BME280;15662;49.128;8.520;2022-07-29T08:36:18;100223.69;;;30.93;37.89
28428;BME280;15662;49.128;8.520;2022-07-29T08:38:48;100227.63;;;30.90;37.79
28428;BME280;15662;49.128;8.520;2022-07-29T08:41:19;100216.50;;;30.92;37.71
28428;BME280;15662;49.128;8.520;2022-07-29T08:43:48;100225.94;;;30.89;37.79
28428;BME280;15662;49.128;8.520;2022-07-29T08:46:18;100227.78;;;30.89;37.59
28428;BME280;15662;49.128;8.520;2022-07-29T08:48:47;100233.44;;;30.95;36.98
28428;BME280;15662;49.128;8.520;2022-07-29T08:51:18;100228.28;;;31.00;36.81
28428;BME280;15662;49.128;8.520;2022-07-29T08:53:48;100238.88;;;31.03;36.45
28428;BME280;15662;49.128;8.520;2022-07-29T08:56:18;100232.72;;;31.09;35.84
28428;BME280;15662;49.128;8.520;2022-07-29T08:58:48;100228.59;;;31.14;35.63
28428;BME280;15662;49.128;8.520;2022-07-29T09:01:23;100223.44;;;31.19;35.24
28428;BME280;15662;49.128;8.520;2022-07-29T09:04:11;100227.50;;;31.23;35.85
28428;BME280;15662;49.128;8.520;2022-07-29T09:06:46;100234.69;;;31.32;35.29
28428;BME280;15662;49.128;8.520;2022-07-29T09:09:15;100227.00;;;31.36;35.74
28428;BME280;15662;49.128;8.520;2022-07-29T09:11:43;100231.28;;;31.38;35.23
28428;BME280;15662;49.128;8.520;2022-07-29T09:14:13;100230.06;;;31.41;35.48
28428;BME280;15662;49.128;8.520;2022-07-29T09:16:53;100236.53;;;31.48;35.00
28428;BME280;15662;49.128;8.520;2022-07-29T09:19:26;100244.56;;;31.49;34.87
28428;BME280;15662;49.128;8.520;2022-07-29T09:21:57;100237.03;;;31.51;34.76
28428;BME280;15662;49.128;8.520;2022-07-29T09:24:46;100228.81;;;31.51;34.67
28428;BME280;15662;49.128;8.520;2022-07-29T09:27:21;100231.69;;;31.58;34.88
28428;BME280;15662;49.128;8.520;2022-07-29T09:30:05;100229.63;;;31.60;34.57
28428;BME280;15662;49.128;8.520;2022-07-29T09:32:34;100233.03;;;31.62;34.19
28428;BME280;15662;49.128;8.520;2022-07-29T09:35:24;100236.66;;;31.63;34.38
28428;BME280;15662;49.128;8.520;2022-07-29T09:37:52;100228.25;;;31.56;34.17
28428;BME280;15662;49.128;8.520;2022-07-29T09:40:24;100239.03;;;31.57;34.10
28428;BME280;15662;49.128;8.520;2022-07-29T09:42:53;100228.59;;;31.61;34.02
28428;BME280;15662;49.128;8.520;2022-07-29T09:45:32;100224.78;;;31.70;33.72
28428;BME280;15662;49.128;8.520;2022-07-29T09:48:34;100211.25;;;31.69;33.52
28428;BME280;15662;49.128;8.520;2022-07-29T09:51:02;100223.25;;;31.68;33.36
28428;BME280;15662;49.128;8.520;2022-07-29T09:53:37;100211.38;;;31.75;33.17
28428;BME280;15662;49.128;8.520;2022-07-29T09:56:07;100216.00;;;31.75;33.46
28428;BME280;15662;49.128;8.520;2022-07-29T09:58:36;100220.75;;;31.81;33.12
28428;BME280;15662;49.128;8.520;2022-07-29T10:01:04;100224.22;;;31.83;33.04
28428;BME280;15662;49.128;8.520;2022-07-29T10:03:32;100219.22;;;31.87;32.88
28428;BME280;15662;49.128;8.520;2022-07-29T10:06:17;100221.78;;;31.88;32.91
28428;BME280;15662;49.128;8.520;2022-07-29T10:08:46;100210.63;;;31.90;32.59
28428;BME280;15662;49.128;8.520;2022-07-29T10:11:16;100210.59;;;31.98;32.47
28428;BME280;15662;49.128;8.520;2022-07-29T10:13:47;100211.44;;;31.98;32.41
28428;BME280;15662;49.128;8.520;2022-07-29T10:16:16;100209.66;;;31.82;33.34
28428;BME280;15662;49.128;8.520;2022-07-29T10:18:44;100206.13;;;31.97;32.61
28428;BME280;15662;49.128;8.520;2022-07-29T10:21:14;100208.63;;;32.06;32.42
28428;BME280;15662;49.128;8.520;2022-07-29T10:24:02;100198.16;;;32.10;31.99
28428;BME280;15662;49.128;8.520;2022-07-29T10:26:31;100194.19;;;32.13;31.39
28428;BME280;15662;49.128;8.520;2022-07-29T10:29:01;100201.88;;;32.17;31.19
28428;BME280;15662;49.128;8.520;2022-07-29T10:31:44;100189.69;;;32.20;31.00
28428;BME280;15662;49.128;8.520;2022-07-29T10:46:27;100188.38;;;32.30;30.31
28428;BME280;15662;49.128;8.520;2022-07-29T10:49:26;100188.22;;;32.32;30.50
28428;BME280;15662;49.128;8.520;2022-07-29T10:52:04;100187.88;;;32.12;31.35
28428;BME280;15662;49.128;8.520;2022-07-29T11:02:44;100179.50;;;32.51;30.70
28428;BME280;15662;49.128;8.520;2022-07-29T11:05:20;100176.66;;;32.59;30.58
28428;BME280;15662;49.128;8.520;2022-07-29T11:08:18;100173.00;;;32.67;30.26
28428;BME280;15662;49.128;8.520;2022-07-29T11:13:52;100177.72;;;32.73;30.47
28428;BME280;15662;49.128;8.520;2022-07-29T11:16:23;100168.44;;;32.74;30.49
28428;BME280;15662;49.128;8.520;2022-07-29T11:21:43;100164.75;;;32.82;29.95
28428;BME280;15662;49.128;8.520;2022-07-29T11:24:31;100157.84;;;32.86;30.37
28428;BME280;15662;49.128;8.520;2022-07-29T11:27:17;100162.41;;;32.94;30.47
28428;BME280;15662;49.128;8.520;2022-07-29T11:29:58;100158.91;;;33.00;30.21
28428;BME280;15662;49.128;8.520;2022-07-29T11:32:42;100154.53;;;33.05;29.95
28428;BME280;15662;49.128;8.520;2022-07-29T11:35:23;100154.38;;;33.07;29.71
28428;BME280;15662;49.128;8.520;2022-07-29T11:38:27;100154.53;;;33.05;30.10
28428;BME280;15662;49.128;8.520;2022-07-29T11:44:05;100163.94;;;33.11;29.76
28428;BME280;15662;49.128;8.520;2022-07-29T11:46:50;100164.50;;;33.21;29.58
28428;BME280;15662;49.128;8.520;2022-07-29T11:49:23;100168.09;;;33.22;29.39
28428;BME280;15662;49.128;8.520;2022-07-29T11:52:00;100155.56;;;33.19;28.93
28428;BME280;15662;49.128;8.520;2022-07-29T11:54:34;100151.22;;;33.25;29.32
28428;BME280;15662;49.128;8.520;2022-07-29T11:57:22;100163.34;;;33.30;29.47
28428;BME280;15662;49.128;8.520;2022-07-29T12:00:07;100155.38;;;33.35;29.01
28428;BME280;15662;49.128;8.520;2022-07-29T12:02:43;100158.03;;;33.44;28.93
28428;BME280;15662;49.128;8.520;2022-07-29T12:05:16;100151.31;;;33.46;29.10
28428;BME280;15662;49.128;8.520;2022-07-29T12:08:18;100155.06;;;33.60;29.09
28428;BME280;15662;49.128;8.520;2022-07-29T12:10:51;100157.94;;;33.73;28.54
28428;BME280;15662;49.128;8.520;2022-07-29T12:13:21;100157.34;;;33.78;28.28
28428;BME280;15662;49.128;8.520;2022-07-29T12:16:04;100166.44;;;33.78;28.10
28428;BME280;15662;49.128;8.520;2022-07-29T12:18:32;100159.25;;;33.77;28.30
28428;BME280;15662;49.128;8.520;2022-07-29T12:21:01;100164.81;;;33.84;28.42
28428;BME280;15662;49.128;8.520;2022-07-29T12:23:33;100162.94;;;33.84;27.92
28428;BME280;15662;49.128;8.520;2022-07-29T12:26:06;100168.44;;;33.84;28.21
28428;BME280;15662;49.128;8.520;2022-07-29T12:28:48;100175.81;;;33.84;27.97
28428;BME280;15662;49.128;8.520;2022-07-29T12:31:17;100178.56;;;33.84;27.83
28428;BME280;15662;49.128;8.520;2022-07-29T12:34:05;100165.28;;;33.87;27.84
28428;BME280;15662;49.128;8.520;2022-07-29T12:36:33;100164.47;;;33.94;27.74
28428;BME280;15662;49.128;8.520;2022-07-29T12:39:01;100163.50;;;33.95;27.82
28428;BME280;15662;49.128;8.520;2022-07-29T12:41:30;100155.03;;;33.96;27.55
28428;BME280;15662;49.128;8.520;2022-07-29T12:43:59;100158.03;;;34.01;27.90
28428;BME280;15662;49.128;8.520;2022-07-29T12:46:27;100154.91;;;34.04;27.68
28428;BME280;15662;49.128;8.520;2022-07-29T12:48:55;100151.75;;;34.07;27.70
28428;BME280;15662;49.128;8.520;2022-07-29T12:51:32;100160.50;;;34.18;27.51
28428;BME280;15662;49.128;8.520;2022-07-29T12:54:09;100150.19;;;34.20;27.33
28428;BME280;15662;49.128;8.520;2022-07-29T12:56:43;100152.50;;;34.23;27.50
28428;BME280;15662;49.128;8.520;2022-07-29T12:59:18;100157.03;;;34.30;27.28
28428;BME280;15662;49.128;8.520;2022-07-29T13:01:49;100163.38;;;34.31;27.01
28428;BME280;15662;49.128;8.520;2022-07-29T13:04:32;100158.94;;;34.30;27.30
28428;BME280;15662;49.128;8.520;2022-07-29T13:07:05;100146.63;;;34.26;27.08
28428;BME280;15662;49.128;8.520;2022-07-29T13:09:40;100158.94;;;34.30;27.19
28428;BME280;15662;49.128;8.520;2022-07-29T13:12:11;100160.63;;;34.31;27.29
28428;BME280;15662;49.128;8.520;2022-07-29T13:14:45;100151.41;;;34.38;27.11
28428;BME280;15662;49.128;8.520;2022-07-29T13:19:51;100156.09;;;34.45;26.81
28428;BME280;15662;49.128;8.520;2022-07-29T13:22:23;100149.56;;;34.46;26.42
28428;BME280;15662;49.128;8.520;2022-07-29T13:24:55;100160.63;;;34.52;26.55
28428;BME280;15662;49.128;8.520;2022-07-29T13:27:26;100154.31;;;34.58;26.19
28428;BME280;15662;49.128;8.520;2022-07-29T13:29:57;100154.13;;;34.60;26.40
28428;BME280;15662;49.128;8.520;2022-07-29T13:32:28;100160.72;;;34.65;26.14
28428;BME280;15662;49.128;8.520;2022-07-29T13:34:58;100144.00;;;34.67;26.33
28428;BME280;15662;49.128;8.520;2022-07-29T13:37:28;100149.09;;;34.70;26.12
28428;BME280;15662;49.128;8.520;2022-07-29T13:39:57;100150.81;;;34.78;26.16
28428;BME280;15662;49.128;8.520;2022-07-29T13:42:26;100152.38;;;34.87;25.38
28428;BME280;15662;49.128;8.520;2022-07-29T13:44:54;100160.03;;;34.91;25.70
28428;BME280;15662;49.128;8.520;2022-07-29T13:47:23;100157.75;;;34.95;25.45
28428;BME280;15662;49.128;8.520;2022-07-29T13:50:01;100156.69;;;34.96;25.66
28428;BME280;15662;49.128;8.520;2022-07-29T13:52:29;100158.00;;;35.00;25.24
28428;BME280;15662;49.128;8.520;2022-07-29T13:54:57;100153.56;;;35.06;25.34
28428;BME280;15662;49.128;8.520;2022-07-29T13:57:25;100155.94;;;35.09;25.28